sensor_id;sensor_type;location;lat;lon;timestamp;pressure;altitude;pressure_sealevel;temperature;humidity
45991;BME280;31721;41.740;-88.000;2022-12-10T00:01:12;99565.51;;;2.81;64.62
45991;BME280;31721;41.740;-88.000;2022-12-10T00:03:41;99563.83;;;2.91;64.71
45991;BME280;31721;41.740;-88.000;2022-12-10T00:06:12;99568.91;;;2.57;64.94
45991;BME280;31721;41.740;-88.000;2022-12-10T00:08:40;99575.60;;;2.81;64.72
45991;BME280;31721;41.740;-88.000;2022-12-10T00:11:12;99573.35;;;2.74;64.79
45991;BME280;31721;41.740;-88.000;2022-12-10T00:13:40;99576.41;;;2.86;64.81
45991;BME280;31721;41.740;-88.000;2022-12-10T00:16:10;99580.76;;;2.78;64.49
45991;BME280;31721;41.740;-88.000;2022-12-10T00:18:39;99578.10;;;2.75;64.60
45991;BME280;31721;41.740;-88.000;2022-12-10T00:21:08;99574.85;;;2.98;64.64
45991;BME280;31721;41.740;-88.000;2022-12-10T00:23:37;99576.68;;;2.90;64.68
45991;BME280;31721;41.740;-88.000;2022-12-10T00:26:07;99585.62;;;2.83;64.74
45991;BME280;31721;41.740;-88.000;2022-12-10T00:28:36;99581.42;;;2.57;64.94
45991;BME280;31721;41.740;-88.000;2022-12-10T00:31:05;99581.54;;;2.63;64.91
45991;BME280;31721;41.740;-88.000;2022-12-10T00:33:34;99579.22;;;2.66;64.81
45991;BME280;31721;41.740;-88.000;2022-12-10T00:36:05;99583.13;;;2.58;64.83
45991;BME280;31721;41.740;-88.000;2022-12-10T00:38:33;99587.35;;;2.64;64.61
45991;BME280;31721;41.740;-88.000;2022-12-10T00:41:01;99586.37;;;2.22;65.57
45991;BME280;31721;41.740;-88.000;2022-12-10T00:43:29;99589.53;;;2.31;65.13
45991;BME280;31721;41.740;-88.000;2022-12-10T00:45:58;99595.61;;;2.45;64.94
45991;BME280;31721;41.740;-88.000;2022-12-10T00:48:26;99596.91;;;2.47;65.12
45991;BME280;31721;41.740;-88.000;2022-12-10T00:50:56;99599.83;;;2.44;65.23
45991;BME280;31721;41.740;-88.000;2022-12-10T00:53:25;99599.20;;;2.44;64.96
45991;BME280;31721;41.740;-88.000;2022-12-10T00:55:55;99601.47;;;2.31;65.03
45991;BME280;31721;41.740;-88.000;2022-12-10T00:58:23;99608.68;;;2.41;64.95
45991;BME280;31721;41.740;-88.000;2022-12-10T01:00:53;99611.03;;;2.41;64.92
45991;BME280;31721;41.740;-88.000;2022-12-10T01:03:21;99615.43;;;2.47;65.09
45991;BME280;31721;41.740;-88.000;2022-12-10T01:05:49;99623.85;;;2.56;64.87
45991;BME280;31721;41.740;-88.000;2022-12-10T01:08:16;99624.91;;;2.62;64.71
45991;BME280;31721;41.740;-88.000;2022-12-10T01:10:45;99626.38;;;2.42;65.01
45991;BME280;31721;41.740;-88.000;2022-12-10T01:13:20;99631.93;;;2.42;64.99
45991;BME280;31721;41.740;-88.000;2022-12-10T01:15:48;99633.80;;;2.57;65.05
45991;BME280;31721;41.740;-88.000;2022-12-10T01:18:15;99627.46;;;2.44;65.30
45991;BME280;31721;41.740;-88.000;2022-12-10T01:20:43;99631.18;;;2.44;65.46
45991;BME280;31721;41.740;-88.000;2022-12-10T01:23:10;99635.97;;;2.51;65.24
45991;BME280;31721;41.740;-88.000;2022-12-10T01:25:38;99643.52;;;2.59;64.90
45991;BME280;31721;41.740;-88.000;2022-12-10T01:28:06;99649.46;;;2.73;64.80
45991;BME280;31721;41.740;-88.000;2022-12-10T01:30:39;99655.52;;;2.38;65.24
45991;BME280;31721;41.740;-88.000;2022-12-10T01:33:08;99651.58;;;2.68;65.04
45991;BME280;31721;41.740;-88.000;2022-12-10T01:35:36;99646.99;;;2.66;64.92
45991;BME280;31721;41.740;-88.000;2022-12-10T01:38:04;99647.19;;;2.55;64.63
45991;BME280;31721;41.740;-88.000;2022-12-10T01:40:37;99647.49;;;2.65;64.77
45991;BME280;31721;41.740;-88.000;2022-12-10T01:43:09;99649.74;;;2.71;64.44
45991;BME280;31721;41.740;-88.000;2022-12-10T01:45:40;99649.34;;;2.49;64.85
45991;BME280;31721;41.740;-88.000;2022-12-10T01:48:09;99650.13;;;2.48;64.96
45991;BME280;31721;41.740;-88.000;2022-12-10T01:50:37;99647.15;;;2.48;64.97
45991;BME280;31721;41.740;-88.000;2022-12-10T01:53:05;99649.15;;;2.63;64.69
45991;BME280;31721;41.740;-88.000;2022-12-10T01:55:50;99645.16;;;2.59;64.74
45991;BME280;31721;41.740;-88.000;2022-12-10T01:58:19;99645.97;;;2.43;64.91
45991;BME280;31721;41.740;-88.000;2022-12-10T02:00:57;99645.24;;;2.66;64.84
45991;BME280;31721;41.740;-88.000;2022-12-10T02:03:35;99641.76;;;2.73;64.59
45991;BME280;31721;41.740;-88.000;2022-12-10T02:06:15;99638.29;;;2.69;64.68
45991;BME280;31721;41.740;-88.000;2022-12-10T02:08:54;99637.88;;;2.65;64.64
45991;BME280;31721;41.740;-88.000;2022-12-10T02:11:30;99639.61;;;2.79;64.83
45991;BME280;31721;41.740;-88.000;2022-12-10T02:14:03;99642.37;;;2.65;64.55
45991;BME280;31721;41.740;-88.000;2022-12-10T02:16:40;99648.95;;;2.69;64.76
45991;BME280;31721;41.740;-88.000;2022-12-10T02:19:15;99654.54;;;2.81;64.50
45991;BME280;31721;41.740;-88.000;2022-12-10T02:21:48;99651.00;;;2.88;64.57
45991;BME280;31721;41.740;-88.000;2022-12-10T02:24:23;99648.75;;;2.85;64.34
45991;BME280;31721;41.740;-88.000;2022-12-10T02:26:58;99649.63;;;2.93;64.50
45991;BME280;31721;41.740;-88.000;2022-12-10T02:29:28;99651.10;;;3.04;64.24
45991;BME280;31721;41.740;-88.000;2022-12-10T02:32:01;99646.95;;;3.09;64.41
45991;BME280;31721;41.740;-88.000;2022-12-10T02:34:33;99646.23;;;2.75;64.47
45991;BME280;31721;41.740;-88.000;2022-12-10T02:37:05;99648.02;;;2.64;64.77
45991;BME280;31721;41.740;-88.000;2022-12-10T02:39:37;99650.86;;;2.80;64.43
45991;BME280;31721;41.740;-88.000;2022-12-10T02:42:08;99656.63;;;2.89;64.36
45991;BME280;31721;41.740;-88.000;2022-12-10T02:44:37;99659.84;;;2.92;64.50
45991;BME280;31721;41.740;-88.000;2022-12-10T02:47:08;99661.12;;;2.86;64.59
45991;BME280;31721;41.740;-88.000;2022-12-10T02:49:37;99666.50;;;3.00;64.47
45991;BME280;31721;41.740;-88.000;2022-12-10T02:52:07;99668.31;;;3.05;64.56
45991;BME280;31721;41.740;-88.000;2022-12-10T02:54:40;99666.45;;;3.04;64.40
45991;BME280;31721;41.740;-88.000;2022-12-10T02:57:15;99663.89;;;3.17;64.09
45991;BME280;31721;41.740;-88.000;2022-12-10T03:00:02;99664.28;;;2.98;64.18
45991;BME280;31721;41.740;-88.000;2022-12-10T03:02:38;99659.64;;;3.06;64.27
45991;BME280;31721;41.740;-88.000;2022-12-10T03:05:15;99659.95;;;3.07;64.04
45991;BME280;31721;41.740;-88.000;2022-12-10T03:07:49;99659.65;;;3.09;64.18
45991;BME280;31721;41.740;-88.000;2022-12-10T03:10:24;99662.19;;;3.02;64.08
45991;BME280;31721;41.740;-88.000;2022-12-10T03:12:58;99664.93;;;3.25;64.19
45991;BME280;31721;41.740;-88.000;2022-12-10T03:15:27;99665.93;;;3.01;64.21
45991;BME280;31721;41.740;-88.000;2022-12-10T03:17:57;99665.16;;;3.16;63.96
45991;BME280;31721;41.740;-88.000;2022-12-10T03:20:27;99662.93;;;2.93;64.02
45991;BME280;31721;41.740;-88.000;2022-12-10T03:22:55;99666.42;;;2.98;64.26
45991;BME280;31721;41.740;-88.000;2022-12-10T03:25:25;99667.33;;;2.95;64.08
45991;BME280;31721;41.740;-88.000;2022-12-10T03:27:56;99666.32;;;2.95;64.09
45991;BME280;31721;41.740;-88.000;2022-12-10T03:30:25;99665.69;;;3.02;63.81
45991;BME280;31721;41.740;-88.000;2022-12-10T03:32:53;99667.44;;;2.91;64.07
45991;BME280;31721;41.740;-88.000;2022-12-10T03:35:23;99669.32;;;2.84;63.80
45991;BME280;31721;41.740;-88.000;2022-12-10T03:37:51;99673.10;;;3.02;63.91
45991;BME280;31721;41.740;-88.000;2022-12-10T03:40:22;99676.30;;;3.10;63.79
45991;BME280;31721;41.740;-88.000;2022-12-10T03:42:51;99679.52;;;3.13;63.89
45991;BME280;31721;41.740;-88.000;2022-12-10T03:45:19;99679.85;;;3.13;63.95
45991;BME280;31721;41.740;-88.000;2022-12-10T03:47:47;99677.35;;;3.01;63.67
45991;BME280;31721;41.740;-88.000;2022-12-10T03:50:14;99678.52;;;3.07;63.78
45991;BME280;31721;41.740;-88.000;2022-12-10T03:52:42;99686.64;;;3.17;63.87
45991;BME280;31721;41.740;-88.000;2022-12-10T03:55:10;99690.50;;;3.08;63.76
45991;BME280;31721;41.740;-88.000;2022-12-10T03:57:38;99691.57;;;3.07;63.81
45991;BME280;31721;41.740;-88.000;2022-12-10T04:00:07;99696.58;;;3.20;63.89
45991;BME280;31721;41.740;-88.000;2022-12-10T04:02:35;99701.69;;;3.23;63.78
45991;BME280;31721;41.740;-88.000;2022-12-10T04:05:03;99704.02;;;3.18;63.70
45991;BME280;31721;41.740;-88.000;2022-12-10T04:07:31;99705.29;;;3.23;63.70
45991;BME280;31721;41.740;-88.000;2022-12-10T04:09:59;99707.96;;;3.20;63.54
45991;BME280;31721;41.740;-88.000;2022-12-10T04:12:26;99707.29;;;3.24;63.75
45991;BME280;31721;41.740;-88.000;2022-12-10T04:14:54;99706.94;;;3.29;63.48
45991;BME280;31721;41.740;-88.000;2022-12-10T04:17:22;99713.44;;;3.33;63.59
45991;BME280;31721;41.740;-88.000;2022-12-10T04:19:50;99719.41;;;3.38;63.61
45991;BME280;31721;41.740;-88.000;2022-12-10T04:22:18;99718.40;;;3.28;63.83
45991;BME280;31721;41.740;-88.000;2022-12-10T04:24:45;99715.11;;;3.29;63.65
45991;BME280;31721;41.740;-88.000;2022-12-10T04:27:16;99712.05;;;3.30;63.50
45991;BME280;31721;41.740;-88.000;2022-12-10T04:29:44;99704.51;;;3.33;63.55
45991;BME280;31721;41.740;-88.000;2022-12-10T04:32:12;99706.13;;;3.37;63.51
45991;BME280;31721;41.740;-88.000;2022-12-10T04:34:39;99709.74;;;3.32;63.26
45991;BME280;31721;41.740;-88.000;2022-12-10T04:37:08;99714.82;;;3.36;63.13
45991;BME280;31721;41.740;-88.000;2022-12-10T04:39:35;99715.59;;;3.34;63.36
45991;BME280;31721;41.740;-88.000;2022-12-10T04:42:03;99709.54;;;3.35;63.24
45991;BME280;31721;41.740;-88.000;2022-12-10T04:44:31;99712.12;;;3.31;63.28
45991;BME280;31721;41.740;-88.000;2022-12-10T04:46:59;99713.32;;;3.35;63.08
45991;BME280;31721;41.740;-88.000;2022-12-10T04:49:27;99715.31;;;3.25;63.38
45991;BME280;31721;41.740;-88.000;2022-12-10T04:51:55;99716.99;;;3.27;63.22
45991;BME280;31721;41.740;-88.000;2022-12-10T04:54:23;99715.53;;;3.31;63.07
45991;BME280;31721;41.740;-88.000;2022-12-10T04:56:51;99716.26;;;3.12;63.26
45991;BME280;31721;41.740;-88.000;2022-12-10T04:59:19;99718.36;;;3.22;63.16
45991;BME280;31721;41.740;-88.000;2022-12-10T05:01:47;99715.34;;;3.13;63.02
45991;BME280;31721;41.740;-88.000;2022-12-10T05:04:16;99715.73;;;3.22;63.00
45991;BME280;31721;41.740;-88.000;2022-12-10T05:06:47;99718.05;;;3.27;63.20
45991;BME280;31721;41.740;-88.000;2022-12-10T05:09:16;99722.67;;;3.38;63.16
45991;BME280;31721;41.740;-88.000;2022-12-10T05:11:44;99720.36;;;3.17;63.29
45991;BME280;31721;41.740;-88.000;2022-12-10T05:14:13;99717.70;;;3.22;63.19
45991;BME280;31721;41.740;-88.000;2022-12-10T05:16:43;99717.76;;;3.22;63.06
45991;BME280;31721;41.740;-88.000;2022-12-10T05:19:11;99716.73;;;3.25;63.13
45991;BME280;31721;41.740;-88.000;2022-12-10T05:21:39;99717.47;;;3.26;63.20
45991;BME280;31721;41.740;-88.000;2022-12-10T05:24:07;99715.38;;;3.24;63.11
45991;BME280;31721;41.740;-88.000;2022-12-10T05:26:35;99711.62;;;3.30;63.10
45991;BME280;31721;41.740;-88.000;2022-12-10T05:29:03;99707.63;;;3.27;63.18
45991;BME280;31721;41.740;-88.000;2022-12-10T05:31:31;99701.44;;;3.29;63.25
45991;BME280;31721;41.740;-88.000;2022-12-10T05:33:59;99700.55;;;3.32;63.15
45991;BME280;31721;41.740;-88.000;2022-12-10T05:36:29;99705.78;;;3.31;63.08
45991;BME280;31721;41.740;-88.000;2022-12-10T05:38:58;99703.90;;;3.31;62.88
45991;BME280;31721;41.740;-88.000;2022-12-10T05:41:27;99702.23;;;3.29;63.14
45991;BME280;31721;41.740;-88.000;2022-12-10T05:43:57;99703.12;;;3.18;63.25
45991;BME280;31721;41.740;-88.000;2022-12-10T05:46:28;99707.44;;;3.25;63.21
45991;BME280;31721;41.740;-88.000;2022-12-10T05:48:57;99709.90;;;3.31;63.11
45991;BME280;31721;41.740;-88.000;2022-12-10T05:51:27;99708.17;;;3.26;63.27
45991;BME280;31721;41.740;-88.000;2022-12-10T05:53:55;99708.43;;;3.24;63.06
45991;BME280;31721;41.740;-88.000;2022-12-10T05:56:24;99712.03;;;3.21;63.32
45991;BME280;31721;41.740;-88.000;2022-12-10T05:58:55;99710.70;;;3.17;63.10
45991;BME280;31721;41.740;-88.000;2022-12-10T06:01:26;99713.49;;;3.25;63.19
45991;BME280;31721;41.740;-88.000;2022-12-10T06:03:57;99716.12;;;3.19;63.15
45991;BME280;31721;41.740;-88.000;2022-12-10T06:06:26;99713.51;;;2.90;63.28
45991;BME280;31721;41.740;-88.000;2022-12-10T06:08:54;99712.35;;;2.95;63.17
45991;BME280;31721;41.740;-88.000;2022-12-10T06:11:23;99713.51;;;2.96;63.20
45991;BME280;31721;41.740;-88.000;2022-12-10T06:13:50;99714.21;;;3.03;63.16
45991;BME280;31721;41.740;-88.000;2022-12-10T06:16:18;99714.30;;;3.11;63.28
45991;BME280;31721;41.740;-88.000;2022-12-10T06:18:46;99711.78;;;3.06;63.21
45991;BME280;31721;41.740;-88.000;2022-12-10T06:21:14;99713.60;;;3.11;63.20
45991;BME280;31721;41.740;-88.000;2022-12-10T06:23:43;99714.10;;;3.28;62.93
45991;BME280;31721;41.740;-88.000;2022-12-10T06:26:14;99712.78;;;3.04;63.06
45991;BME280;31721;41.740;-88.000;2022-12-10T06:28:44;99707.94;;;3.15;63.07
45991;BME280;31721;41.740;-88.000;2022-12-10T06:31:13;99708.43;;;3.14;63.07
45991;BME280;31721;41.740;-88.000;2022-12-10T06:33:41;99709.71;;;3.17;63.00
45991;BME280;31721;41.740;-88.000;2022-12-10T06:36:12;99711.04;;;3.13;63.18
45991;BME280;31721;41.740;-88.000;2022-12-10T06:38:45;99709.18;;;3.11;63.26
45991;BME280;31721;41.740;-88.000;2022-12-10T06:41:17;99705.15;;;3.20;63.07
45991;BME280;31721;41.740;-88.000;2022-12-10T06:43:45;99709.42;;;3.10;63.11
45991;BME280;31721;41.740;-88.000;2022-12-10T06:46:15;99706.59;;;3.10;63.06
45991;BME280;31721;41.740;-88.000;2022-12-10T06:48:43;99700.03;;;3.09;63.13
45991;BME280;31721;41.740;-88.000;2022-12-10T06:51:12;99688.14;;;3.06;63.18
45991;BME280;31721;41.740;-88.000;2022-12-10T06:53:41;99681.49;;;3.04;63.17
45991;BME280;31721;41.740;-88.000;2022-12-10T06:56:12;99676.27;;;2.85;63.28
45991;BME280;31721;41.740;-88.000;2022-12-10T06:58:41;99680.87;;;3.03;63.25
45991;BME280;31721;41.740;-88.000;2022-12-10T07:01:11;99676.52;;;3.03;63.06
45991;BME280;31721;41.740;-88.000;2022-12-10T07:03:39;99674.52;;;3.03;63.21
45991;BME280;31721;41.740;-88.000;2022-12-10T07:06:09;99679.10;;;3.21;63.14
45991;BME280;31721;41.740;-88.000;2022-12-10T07:08:37;99685.84;;;3.17;63.09
45991;BME280;31721;41.740;-88.000;2022-12-10T07:11:06;99686.60;;;3.14;63.11
45991;BME280;31721;41.740;-88.000;2022-12-10T07:13:35;99686.96;;;3.11;62.94
45991;BME280;31721;41.740;-88.000;2022-12-10T07:16:10;99682.61;;;3.06;63.04
45991;BME280;31721;41.740;-88.000;2022-12-10T07:18:38;99678.26;;;3.04;62.87
45991;BME280;31721;41.740;-88.000;2022-12-10T07:21:14;99681.72;;;3.04;62.70
45991;BME280;31721;41.740;-88.000;2022-12-10T07:23:42;99685.88;;;3.01;62.96
45991;BME280;31721;41.740;-88.000;2022-12-10T07:26:09;99690.42;;;3.09;62.83
45991;BME280;31721;41.740;-88.000;2022-12-10T07:28:37;99691.84;;;3.11;62.71
45991;BME280;31721;41.740;-88.000;2022-12-10T07:31:07;99697.34;;;3.28;62.62
45991;BME280;31721;41.740;-88.000;2022-12-10T07:33:36;99699.16;;;3.39;62.62
45991;BME280;31721;41.740;-88.000;2022-12-10T07:36:05;99705.92;;;3.49;62.21
45991;BME280;31721;41.740;-88.000;2022-12-10T07:38:33;99707.22;;;3.32;62.30
45991;BME280;31721;41.740;-88.000;2022-12-10T07:41:03;99700.77;;;3.23;62.22
45991;BME280;31721;41.740;-88.000;2022-12-10T07:43:33;99702.10;;;3.32;62.22
45991;BME280;31721;41.740;-88.000;2022-12-10T07:46:05;99704.36;;;3.30;62.15
45991;BME280;31721;41.740;-88.000;2022-12-10T07:48:35;99706.37;;;3.31;62.21
45991;BME280;31721;41.740;-88.000;2022-12-10T07:51:05;99706.81;;;3.29;62.13
45991;BME280;31721;41.740;-88.000;2022-12-10T07:53:33;99707.89;;;3.28;62.12
45991;BME280;31721;41.740;-88.000;2022-12-10T07:56:02;99711.12;;;3.20;62.33
45991;BME280;31721;41.740;-88.000;2022-12-10T07:58:30;99711.19;;;3.36;62.13
45991;BME280;31721;41.740;-88.000;2022-12-10T08:00:58;99715.52;;;3.35;62.07
45991;BME280;31721;41.740;-88.000;2022-12-10T08:03:26;99717.20;;;3.25;62.24
45991;BME280;31721;41.740;-88.000;2022-12-10T08:06:01;99717.97;;;3.22;62.43
45991;BME280;31721;41.740;-88.000;2022-12-10T08:08:29;99720.68;;;3.31;62.17
45991;BME280;31721;41.740;-88.000;2022-12-10T08:10:59;99718.09;;;3.32;62.24
45991;BME280;31721;41.740;-88.000;2022-12-10T08:13:27;99718.71;;;3.32;62.14
45991;BME280;31721;41.740;-88.000;2022-12-10T08:16:00;99712.78;;;3.41;62.20
45991;BME280;31721;41.740;-88.000;2022-12-10T08:18:28;99705.85;;;3.36;62.23
45991;BME280;31721;41.740;-88.000;2022-12-10T08:20:55;99699.74;;;3.36;62.28
45991;BME280;31721;41.740;-88.000;2022-12-10T08:23:23;99697.37;;;3.36;62.27
45991;BME280;31721;41.740;-88.000;2022-12-10T08:25:52;99700.51;;;3.35;62.16
45991;BME280;31721;41.740;-88.000;2022-12-10T08:28:20;99696.70;;;3.42;61.99
45991;BME280;31721;41.740;-88.000;2022-12-10T08:30:48;99694.47;;;3.28;62.36
45991;BME280;31721;41.740;-88.000;2022-12-10T08:33:21;99700.23;;;3.49;62.13
45991;BME280;31721;41.740;-88.000;2022-12-10T08:35:48;99699.34;;;3.25;62.22
45991;BME280;31721;41.740;-88.000;2022-12-10T08:38:16;99697.66;;;3.32;62.17
45991;BME280;31721;41.740;-88.000;2022-12-10T08:40:44;99700.07;;;3.30;62.16
45991;BME280;31721;41.740;-88.000;2022-12-10T08:43:12;99695.68;;;3.32;62.11
45991;BME280;31721;41.740;-88.000;2022-12-10T08:45:39;99687.93;;;3.33;62.16
45991;BME280;31721;41.740;-88.000;2022-12-10T08:48:07;99679.06;;;3.35;62.26
45991;BME280;31721;41.740;-88.000;2022-12-10T08:50:36;99676.86;;;3.27;62.13
45991;BME280;31721;41.740;-88.000;2022-12-10T08:53:04;99683.65;;;3.27;62.36
45991;BME280;31721;41.740;-88.000;2022-12-10T08:55:32;99688.46;;;3.32;62.21
45991;BME280;31721;41.740;-88.000;2022-12-10T08:58:00;99685.80;;;3.36;62.28
45991;BME280;31721;41.740;-88.000;2022-12-10T09:00:28;99687.40;;;3.23;62.21
45991;BME280;31721;41.740;-88.000;2022-12-10T09:02:56;99689.98;;;3.24;62.33
45991;BME280;31721;41.740;-88.000;2022-12-10T09:05:24;99692.27;;;3.32;62.18
45991;BME280;31721;41.740;-88.000;2022-12-10T09:07:52;99687.50;;;3.33;62.09
45991;BME280;31721;41.740;-88.000;2022-12-10T09:10:19;99686.15;;;3.38;62.05
45991;BME280;31721;41.740;-88.000;2022-12-10T09:12:47;99688.44;;;3.32;62.09
45991;BME280;31721;41.740;-88.000;2022-12-10T09:15:15;99686.92;;;3.41;62.00
45991;BME280;31721;41.740;-88.000;2022-12-10T09:17:43;99689.96;;;3.43;62.11
45991;BME280;31721;41.740;-88.000;2022-12-10T09:20:11;99690.56;;;3.39;62.11
45991;BME280;31721;41.740;-88.000;2022-12-10T09:22:39;99683.62;;;3.37;62.00
45991;BME280;31721;41.740;-88.000;2022-12-10T09:25:08;99677.20;;;3.46;62.01
45991;BME280;31721;41.740;-88.000;2022-12-10T09:27:37;99674.88;;;3.47;62.04
45991;BME280;31721;41.740;-88.000;2022-12-10T09:30:06;99677.04;;;3.40;61.87
45991;BME280;31721;41.740;-88.000;2022-12-10T09:32:34;99688.99;;;3.42;61.99
45991;BME280;31721;41.740;-88.000;2022-12-10T09:35:02;99694.58;;;3.40;61.83
45991;BME280;31721;41.740;-88.000;2022-12-10T09:37:29;99688.73;;;3.48;61.84
45991;BME280;31721;41.740;-88.000;2022-12-10T09:39:57;99687.62;;;3.46;61.77
45991;BME280;31721;41.740;-88.000;2022-12-10T09:42:34;99689.32;;;3.43;61.86
45991;BME280;31721;41.740;-88.000;2022-12-10T09:45:11;99692.30;;;3.53;61.77
45991;BME280;31721;41.740;-88.000;2022-12-10T09:47:48;99689.37;;;3.50;61.77
45991;BME280;31721;41.740;-88.000;2022-12-10T09:50:24;99682.74;;;3.40;61.72
45991;BME280;31721;41.740;-88.000;2022-12-10T09:52:53;99673.91;;;3.41;61.71
45991;BME280;31721;41.740;-88.000;2022-12-10T09:55:29;99665.17;;;3.51;61.82
45991;BME280;31721;41.740;-88.000;2022-12-10T09:57:59;99664.94;;;3.42;61.87
45991;BME280;31721;41.740;-88.000;2022-12-10T10:00:32;99663.84;;;3.52;61.82
45991;BME280;31721;41.740;-88.000;2022-12-10T10:03:02;99659.84;;;3.55;61.83
45991;BME280;31721;41.740;-88.000;2022-12-10T10:05:32;99654.44;;;3.40;61.43
45991;BME280;31721;41.740;-88.000;2022-12-10T10:08:04;99643.96;;;3.44;61.78
45991;BME280;31721;41.740;-88.000;2022-12-10T10:10:34;99631.15;;;3.45;61.73
45991;BME280;31721;41.740;-88.000;2022-12-10T10:13:15;99623.02;;;3.50;61.71
45991;BME280;31721;41.740;-88.000;2022-12-10T10:15:45;99622.34;;;3.41;61.74
45991;BME280;31721;41.740;-88.000;2022-12-10T10:18:18;99633.56;;;3.47;61.41
45991;BME280;31721;41.740;-88.000;2022-12-10T10:20:50;99644.75;;;3.56;61.59
45991;BME280;31721;41.740;-88.000;2022-12-10T10:23:18;99648.02;;;3.59;61.58
45991;BME280;31721;41.740;-88.000;2022-12-10T10:25:46;99652.53;;;3.49;61.49
45991;BME280;31721;41.740;-88.000;2022-12-10T10:28:18;99657.93;;;3.58;61.46
45991;BME280;31721;41.740;-88.000;2022-12-10T10:30:48;99667.80;;;3.58;61.51
45991;BME280;31721;41.740;-88.000;2022-12-10T10:33:18;99662.94;;;3.53;61.48
45991;BME280;31721;41.740;-88.000;2022-12-10T10:35:49;99666.05;;;3.63;61.38
45991;BME280;31721;41.740;-88.000;2022-12-10T10:38:21;99669.51;;;3.68;61.62
45991;BME280;31721;41.740;-88.000;2022-12-10T10:40:50;99679.63;;;3.68;61.49
45991;BME280;31721;41.740;-88.000;2022-12-10T10:43:22;99691.88;;;3.63;61.33
45991;BME280;31721;41.740;-88.000;2022-12-10T10:45:54;99695.25;;;3.67;61.44
45991;BME280;31721;41.740;-88.000;2022-12-10T10:48:26;99691.54;;;3.76;61.43
45991;BME280;31721;41.740;-88.000;2022-12-10T10:50:55;99690.77;;;3.66;61.42
45991;BME280;31721;41.740;-88.000;2022-12-10T10:53:39;99685.03;;;3.72;61.47
45991;BME280;31721;41.740;-88.000;2022-12-10T10:56:10;99686.78;;;3.81;61.37
45991;BME280;31721;41.740;-88.000;2022-12-10T10:58:49;99694.41;;;3.67;61.42
45991;BME280;31721;41.740;-88.000;2022-12-10T11:01:17;99698.09;;;3.73;61.41
45991;BME280;31721;41.740;-88.000;2022-12-10T11:03:48;99687.36;;;3.62;61.39
45991;BME280;31721;41.740;-88.000;2022-12-10T11:06:17;99678.87;;;3.71;61.43
45991;BME280;31721;41.740;-88.000;2022-12-10T11:08:46;99672.79;;;3.73;61.40
45991;BME280;31721;41.740;-88.000;2022-12-10T11:11:19;99668.45;;;3.76;61.39
45991;BME280;31721;41.740;-88.000;2022-12-10T11:13:48;99663.60;;;3.75;61.37
45991;BME280;31721;41.740;-88.000;2022-12-10T11:16:20;99650.20;;;3.82;61.19
45991;BME280;31721;41.740;-88.000;2022-12-10T11:18:57;99638.83;;;3.73;61.10
45991;BME280;31721;41.740;-88.000;2022-12-10T11:21:25;99638.25;;;3.77;61.03
45991;BME280;31721;41.740;-88.000;2022-12-10T11:23:55;99646.26;;;3.69;61.00
45991;BME280;31721;41.740;-88.000;2022-12-10T11:26:52;99649.67;;;3.74;60.90
45991;BME280;31721;41.740;-88.000;2022-12-10T11:29:34;99649.55;;;3.56;61.07
45991;BME280;31721;41.740;-88.000;2022-12-10T11:32:34;99658.86;;;3.77;60.88
45991;BME280;31721;41.740;-88.000;2022-12-10T11:35:11;99671.14;;;3.80;60.77
45991;BME280;31721;41.740;-88.000;2022-12-10T11:37:46;99687.46;;;3.84;60.85
45991;BME280;31721;41.740;-88.000;2022-12-10T11:40:33;99692.93;;;3.84;60.66
45991;BME280;31721;41.740;-88.000;2022-12-10T11:43:13;99695.84;;;3.77;60.56
45991;BME280;31721;41.740;-88.000;2022-12-10T11:45:51;99698.52;;;3.77;60.77
45991;BME280;31721;41.740;-88.000;2022-12-10T11:48:32;99697.55;;;3.77;60.59
45991;BME280;31721;41.740;-88.000;2022-12-10T11:51:06;99694.25;;;3.76;60.62
45991;BME280;31721;41.740;-88.000;2022-12-10T11:53:52;99695.70;;;3.75;60.76
45991;BME280;31721;41.740;-88.000;2022-12-10T11:56:26;99699.05;;;3.78;60.79
45991;BME280;31721;41.740;-88.000;2022-12-10T11:59:03;99694.80;;;3.71;60.83
45991;BME280;31721;41.740;-88.000;2022-12-10T12:01:58;99692.80;;;3.87;60.80
45991;BME280;31721;41.740;-88.000;2022-12-10T12:04:34;99697.77;;;3.78;60.55
45991;BME280;31721;41.740;-88.000;2022-12-10T12:07:24;99696.86;;;3.87;60.77
45991;BME280;31721;41.740;-88.000;2022-12-10T12:10:17;99685.39;;;3.78;60.59
45991;BME280;31721;41.740;-88.000;2022-12-10T12:12:52;99686.25;;;3.80;60.56
45991;BME280;31721;41.740;-88.000;2022-12-10T12:15:27;99686.82;;;3.69;60.62
45991;BME280;31721;41.740;-88.000;2022-12-10T12:18:00;99677.21;;;3.68;60.63
45991;BME280;31721;41.740;-88.000;2022-12-10T12:20:31;99679.23;;;3.79;60.73
45991;BME280;31721;41.740;-88.000;2022-12-10T12:23:04;99683.16;;;3.64;60.75
45991;BME280;31721;41.740;-88.000;2022-12-10T12:25:42;99677.88;;;3.73;60.82
45991;BME280;31721;41.740;-88.000;2022-12-10T12:28:16;99679.14;;;3.69;60.72
45991;BME280;31721;41.740;-88.000;2022-12-10T12:30:59;99677.43;;;3.87;60.81
45991;BME280;31721;41.740;-88.000;2022-12-10T12:33:34;99683.88;;;3.78;60.49
45991;BME280;31721;41.740;-88.000;2022-12-10T12:36:11;99682.76;;;3.68;60.68
45991;BME280;31721;41.740;-88.000;2022-12-10T12:38:45;99681.89;;;3.74;60.70
45991;BME280;31721;41.740;-88.000;2022-12-10T12:41:16;99678.15;;;3.72;60.56
45991;BME280;31721;41.740;-88.000;2022-12-10T12:43:52;99668.70;;;3.81;60.59
45991;BME280;31721;41.740;-88.000;2022-12-10T12:46:29;99660.29;;;3.80;60.55
45991;BME280;31721;41.740;-88.000;2022-12-10T12:49:04;99655.28;;;3.80;60.50
45991;BME280;31721;41.740;-88.000;2022-12-10T12:51:40;99651.88;;;3.75;60.54
45991;BME280;31721;41.740;-88.000;2022-12-10T12:54:11;99649.26;;;3.81;60.52
45991;BME280;31721;41.740;-88.000;2022-12-10T12:56:52;99646.21;;;3.87;60.36
45991;BME280;31721;41.740;-88.000;2022-12-10T12:59:35;99647.23;;;3.86;60.39
45991;BME280;31721;41.740;-88.000;2022-12-10T13:02:18;99647.95;;;3.76;60.28
45991;BME280;31721;41.740;-88.000;2022-12-10T13:04:49;99643.36;;;3.79;60.16
45991;BME280;31721;41.740;-88.000;2022-12-10T13:07:35;99647.85;;;3.69;60.13
45991;BME280;31721;41.740;-88.000;2022-12-10T13:10:23;99646.59;;;3.74;60.06